createdAt,value
2022-12-25T00:01:22.942Z,9.60
2022-12-25T00:03:50.530Z,9.60
2022-12-25T00:06:17.992Z,9.60
2022-12-25T00:08:45.110Z,9.60
2022-12-25T00:11:14.961Z,9.60
2022-12-25T00:13:42.886Z,9.70
2022-12-25T00:16:14.845Z,9.60
2022-12-25T00:18:41.632Z,9.70
2022-12-25T00:21:08.538Z,9.70
2022-12-25T00:23:35.824Z,9.60
2022-12-25T00:26:08.052Z,9.70
2022-12-25T00:28:36.183Z,9.60
2022-12-25T00:31:12.592Z,9.60
2022-12-25T00:33:41.626Z,9.70
2022-12-25T00:36:09.335Z,9.70
2022-12-25T00:38:42.991Z,9.70
2022-12-25T00:41:18.375Z,9.70
2022-12-25T00:43:47.822Z,9.70
2022-12-25T00:46:14.690Z,9.70
2022-12-25T00:48:41.748Z,9.70
2022-12-25T00:51:14.322Z,9.70
2022-12-25T00:53:41.287Z,9.70
2022-12-25T00:56:08.207Z,9.70
2022-12-25T00:58:35.645Z,9.70
2022-12-25T01:01:03.081Z,9.70
2022-12-25T01:03:30.275Z,9.80
2022-12-25T01:06:02.850Z,9.80
2022-12-25T01:08:32.039Z,9.80
2022-12-25T01:11:04.194Z,9.70
2022-12-25T01:13:32.230Z,9.80
2022-12-25T01:15:59.370Z,9.80
2022-12-25T01:18:27.495Z,9.80
2022-12-25T01:20:54.321Z,9.80
2022-12-25T01:23:21.158Z,9.80
2022-12-25T01:25:48.000Z,9.80
2022-12-25T01:28:16.462Z,9.80
2022-12-25T01:30:48.829Z,9.80
2022-12-25T01:33:15.660Z,9.80
2022-12-25T01:35:42.609Z,9.80
2022-12-25T01:38:09.312Z,9.80
2022-12-25T01:40:36.108Z,9.80
2022-12-25T01:43:02.967Z,9.90
2022-12-25T01:45:44.387Z,9.80
2022-12-25T01:48:19.610Z,9.80
2022-12-25T01:50:51.101Z,9.80
2022-12-25T01:53:18.026Z,9.90
2022-12-25T01:55:47.390Z,9.90
2022-12-25T01:58:15.179Z,9.90
2022-12-25T02:00:42.070Z,9.90
2022-12-25T02:03:09.245Z,9.90
2022-12-25T02:05:36.268Z,9.90
2022-12-25T02:08:08.912Z,9.90
2022-12-25T02:10:35.932Z,9.90
2022-12-25T02:13:03.359Z,10.00
2022-12-25T02:15:59.186Z,9.90
2022-12-25T02:18:47.440Z,10.00
2022-12-25T02:21:45.247Z,10.00
2022-12-25T02:24:25.203Z,9.90
2022-12-25T02:27:08.225Z,9.90
2022-12-25T02:29:48.600Z,10.00
2022-12-25T02:32:39.874Z,10.00
2022-12-25T02:35:16.548Z,10.00
2022-12-25T02:38:15.213Z,10.00
2022-12-25T02:40:48.576Z,10.00
2022-12-25T02:43:39.869Z,10.00
2022-12-25T02:46:32.690Z,10.00
2022-12-25T02:49:25.125Z,10.00
2022-12-25T02:52:20.889Z,10.00
2022-12-25T02:55:29.692Z,10.00
2022-12-25T02:58:19.928Z,10.00
2022-12-25T03:01:12.417Z,10.00
2022-12-25T03:04:00.489Z,9.90
2022-12-25T03:06:44.553Z,10.00
2022-12-25T03:09:41.864Z,10.00
2022-12-25T03:12:15.835Z,10.00
2022-12-25T03:15:01.348Z,9.90
2022-12-25T03:17:28.308Z,9.90
2022-12-25T03:20:13.700Z,9.90
2022-12-25T03:23:01.419Z,9.90
2022-12-25T03:25:48.320Z,9.90
2022-12-25T03:28:15.120Z,9.90
2022-12-25T03:31:17.364Z,9.80
2022-12-25T03:34:36.279Z,9.90
2022-12-25T03:37:44.973Z,9.80
2022-12-25T03:40:49.189Z,9.80
2022-12-25T03:44:04.091Z,9.70
2022-12-25T03:46:54.918Z,9.80
2022-12-25T03:49:50.803Z,9.70
2022-12-25T03:52:38.320Z,9.70
2022-12-25T03:55:28.582Z,9.70
2022-12-25T03:58:14.229Z,9.60
2022-12-25T04:00:59.406Z,9.60
2022-12-25T04:03:45.107Z,9.60
2022-12-25T04:06:30.780Z,9.60
2022-12-25T04:09:19.220Z,9.60
2022-12-25T04:12:04.615Z,9.60
2022-12-25T04:14:50.078Z,9.60
2022-12-25T04:17:35.681Z,9.60
2022-12-25T04:20:21.354Z,9.70
2022-12-25T04:23:07.019Z,9.60
2022-12-25T04:25:52.288Z,9.70
2022-12-25T04:28:38.025Z,9.70
2022-12-25T04:31:23.523Z,9.70
2022-12-25T04:34:08.962Z,9.70
2022-12-25T04:36:35.652Z,9.70
2022-12-25T04:39:02.341Z,9.70
2022-12-25T04:41:29.039Z,9.70
2022-12-25T04:43:55.759Z,9.70
2022-12-25T04:46:22.501Z,9.70
2022-12-25T04:48:49.290Z,9.70
2022-12-25T04:51:25.101Z,9.70
2022-12-25T04:53:53.412Z,9.70
2022-12-25T04:56:21.202Z,9.60
2022-12-25T04:58:48.324Z,9.60
2022-12-25T05:01:15.835Z,9.60
2022-12-25T05:03:43.126Z,9.60
2022-12-25T05:06:09.902Z,9.60
2022-12-25T05:08:37.217Z,9.60
2022-12-25T05:11:09.091Z,9.60
2022-12-25T05:13:36.246Z,9.60
2022-12-25T05:16:08.119Z,9.60
2022-12-25T05:18:38.169Z,9.70
2022-12-25T05:21:07.922Z,9.70
2022-12-25T05:23:35.398Z,9.70
2022-12-25T05:26:08.259Z,9.70
2022-12-25T05:28:35.823Z,9.70
2022-12-25T05:31:03.124Z,9.70
2022-12-25T05:33:32.693Z,9.70
2022-12-25T05:36:06.340Z,9.70
2022-12-25T05:38:33.406Z,9.70
2022-12-25T05:41:03.514Z,9.70
2022-12-25T05:43:30.634Z,9.70
2022-12-25T05:45:57.401Z,9.70
2022-12-25T05:48:24.247Z,9.70
2022-12-25T05:50:50.972Z,9.70
2022-12-25T05:53:17.733Z,9.70
2022-12-25T05:55:44.603Z,9.70
2022-12-25T05:58:12.848Z,9.60
2022-12-25T06:00:40.437Z,9.60
2022-12-25T06:03:10.008Z,9.60
2022-12-25T06:05:38.890Z,9.60
2022-12-25T06:08:05.634Z,9.60
2022-12-25T06:10:32.459Z,9.60
2022-12-25T06:12:59.273Z,9.60
2022-12-25T06:15:26.105Z,9.60
2022-12-25T06:17:52.835Z,9.60
2022-12-25T06:20:19.670Z,9.60
2022-12-25T06:22:46.372Z,9.70
2022-12-25T06:25:15.751Z,9.70
2022-12-25T06:27:42.914Z,9.70
2022-12-25T06:30:10.140Z,9.70
2022-12-25T06:32:37.198Z,9.80
2022-12-25T06:35:07.010Z,9.80
2022-12-25T06:37:34.043Z,9.80
2022-12-25T06:40:03.661Z,9.80
2022-12-25T06:42:30.480Z,9.80
2022-12-25T06:44:57.256Z,9.90
2022-12-25T06:47:23.955Z,9.90
2022-12-25T06:49:51.482Z,9.90
2022-12-25T06:52:20.920Z,9.90
2022-12-25T06:54:47.950Z,10.00
2022-12-25T06:57:14.669Z,10.00
2022-12-25T06:59:55.162Z,10.00
2022-12-25T07:02:24.474Z,10.10
2022-12-25T07:04:52.136Z,10.00
2022-12-25T07:07:18.852Z,10.10
2022-12-25T07:09:45.660Z,10.10
2022-12-25T07:12:20.280Z,10.10
2022-12-25T07:14:50.129Z,10.10
2022-12-25T07:17:17.917Z,10.10
2022-12-25T07:19:46.277Z,10.10
2022-12-25T07:22:14.022Z,10.10
2022-12-25T07:24:43.069Z,10.20
2022-12-25T07:27:09.946Z,10.20
2022-12-25T07:29:37.006Z,10.20
2022-12-25T07:32:03.966Z,10.20
2022-12-25T07:34:30.699Z,10.30
2022-12-25T07:36:57.393Z,10.30
2022-12-25T07:39:24.085Z,10.30
2022-12-25T07:41:51.332Z,10.30
2022-12-25T07:44:18.489Z,10.30
2022-12-25T07:46:45.878Z,10.30
2022-12-25T07:49:13.001Z,10.30
2022-12-25T07:51:39.844Z,10.30
2022-12-25T07:54:06.800Z,10.30
2022-12-25T07:56:33.578Z,10.30
2022-12-25T07:59:00.334Z,10.30
2022-12-25T08:01:28.036Z,10.30
2022-12-25T08:04:00.821Z,10.30
2022-12-25T08:06:31.200Z,10.30
2022-12-25T08:09:04.428Z,10.40
2022-12-25T08:11:31.354Z,10.30
2022-12-25T08:13:58.282Z,10.30
2022-12-25T08:16:28.014Z,10.30
2022-12-25T08:18:54.905Z,10.30
2022-12-25T08:21:21.605Z,10.30
2022-12-25T08:23:48.525Z,10.30
2022-12-25T08:26:18.377Z,10.30
2022-12-25T08:28:45.696Z,10.30
2022-12-25T08:31:18.349Z,10.30
2022-12-25T08:33:45.782Z,10.30
2022-12-25T08:36:16.406Z,10.30
2022-12-25T08:38:43.817Z,10.30
2022-12-25T08:41:11.362Z,10.30
2022-12-25T08:43:38.667Z,10.30
2022-12-25T08:46:06.120Z,10.30
2022-12-25T08:48:33.048Z,10.30
2022-12-25T08:51:00.124Z,10.30
2022-12-25T08:53:27.431Z,10.30
2022-12-25T08:56:04.496Z,10.30
2022-12-25T08:58:31.941Z,10.30
2022-12-25T09:00:58.853Z,10.30
2022-12-25T09:03:26.164Z,10.30
2022-12-25T09:05:53.838Z,10.30
2022-12-25T09:08:21.944Z,10.30
2022-12-25T09:10:49.203Z,10.30
2022-12-25T09:13:16.010Z,10.30
2022-12-25T09:15:42.886Z,10.30
2022-12-25T09:18:09.838Z,10.30
2022-12-25T09:20:36.569Z,10.40
2022-12-25T09:23:05.158Z,10.30
2022-12-25T09:25:35.320Z,10.40
2022-12-25T09:28:02.136Z,10.40
2022-12-25T09:30:30.418Z,10.40
2022-12-25T09:32:57.906Z,10.40
2022-12-25T09:35:24.590Z,10.40
2022-12-25T09:37:52.735Z,10.40
2022-12-25T09:40:21.635Z,10.40
2022-12-25T09:42:49.300Z,10.40
2022-12-25T09:45:30.019Z,10.40
2022-12-25T09:47:57.194Z,10.30
2022-12-25T09:50:33.064Z,10.40
2022-12-25T09:53:36.863Z,10.30
2022-12-25T09:56:10.698Z,10.40
2022-12-25T09:58:37.608Z,10.40
2022-12-25T10:01:14.740Z,10.40
2022-12-25T10:04:09.288Z,10.40
2022-12-25T10:06:45.007Z,10.40
2022-12-25T10:09:20.528Z,10.40
2022-12-25T10:12:17.491Z,10.40
2022-12-25T10:15:15.030Z,10.40
2022-12-25T10:18:08.272Z,10.40
2022-12-25T10:20:40.782Z,10.40
2022-12-25T10:23:16.009Z,10.40
2022-12-25T10:25:45.094Z,10.30
2022-12-25T10:28:32.557Z,10.40
2022-12-25T10:31:06.036Z,10.30
2022-12-25T10:33:32.784Z,10.40
2022-12-25T10:36:00.124Z,10.30
2022-12-25T10:38:26.832Z,10.40
2022-12-25T10:41:05.680Z,10.30
2022-12-25T10:43:51.378Z,10.40
2022-12-25T10:46:19.523Z,10.40
2022-12-25T10:48:58.745Z,10.40
2022-12-25T10:51:39.444Z,10.40
2022-12-25T10:54:41.466Z,10.40
2022-12-25T10:57:08.174Z,10.40
2022-12-25T10:59:43.486Z,10.40
2022-12-25T11:02:30.652Z,10.40
2022-12-25T11:05:15.453Z,10.40
2022-12-25T11:07:50.898Z,10.30
2022-12-25T11:10:22.103Z,10.30
2022-12-25T11:12:49.083Z,10.30
2022-12-25T11:15:36.432Z,10.30
2022-12-25T11:18:16.581Z,10.30
2022-12-25T11:20:55.213Z,10.30
2022-12-25T11:23:24.683Z,10.20
2022-12-25T11:26:06.816Z,10.30
2022-12-25T11:28:38.718Z,10.20
2022-12-25T11:31:36.010Z,10.30
2022-12-25T11:34:11.431Z,10.20
2022-12-25T11:36:46.482Z,10.20
2022-12-25T11:39:25.058Z,10.20
2022-12-25T11:42:04.690Z,10.30
2022-12-25T11:44:43.888Z,10.30
2022-12-25T11:47:41.007Z,10.30
2022-12-25T11:50:44.498Z,10.40
2022-12-25T11:53:24.870Z,10.40
2022-12-25T11:55:55.802Z,10.40
2022-12-25T11:58:22.576Z,10.40
2022-12-25T12:00:52.476Z,10.50
2022-12-25T12:03:35.550Z,10.50
2022-12-25T12:06:47.804Z,10.50
2022-12-25T12:09:46.324Z,10.60
2022-12-25T12:12:34.043Z,10.60
2022-12-25T12:15:08.996Z,10.50
2022-12-25T12:17:35.875Z,10.60
2022-12-25T12:20:31.247Z,10.60
2022-12-25T12:22:58.860Z,10.60
2022-12-25T12:25:26.678Z,10.60
2022-12-25T12:28:04.500Z,10.60
2022-12-25T12:30:35.487Z,10.70
2022-12-25T12:33:07.756Z,10.70
2022-12-25T12:35:40.054Z,10.70
2022-12-25T12:38:20.184Z,10.60
2022-12-25T12:41:02.804Z,10.60
2022-12-25T12:43:37.650Z,10.60
2022-12-25T12:46:21.559Z,10.60
2022-12-25T12:48:54.858Z,10.60
2022-12-25T12:51:29.574Z,10.60
2022-12-25T12:54:25.213Z,10.60
2022-12-25T12:57:29.851Z,10.60
2022-12-25T13:00:00.017Z,10.60
2022-12-25T13:02:51.313Z,10.60
2022-12-25T13:05:48.801Z,10.60
2022-12-25T13:08:25.761Z,10.60
2022-12-25T13:11:05.891Z,10.60
2022-12-25T13:13:44.838Z,10.60
2022-12-25T13:16:31.061Z,10.60
2022-12-25T13:18:58.668Z,10.60
2022-12-25T13:21:28.964Z,10.60
2022-12-25T13:24:00.433Z,10.60
2022-12-25T13:26:28.071Z,10.70
2022-12-25T13:28:56.156Z,10.70
2022-12-25T13:31:33.735Z,10.70
2022-12-25T13:34:05.000Z,10.70
2022-12-25T13:36:40.225Z,10.70
2022-12-25T13:39:16.052Z,10.70
2022-12-25T13:42:09.617Z,10.70
2022-12-25T13:44:50.591Z,10.70
2022-12-25T13:47:24.127Z,10.70
2022-12-25T13:49:53.159Z,10.70
2022-12-25T13:52:41.950Z,10.70
2022-12-25T13:55:16.695Z,10.70
2022-12-25T13:57:50.532Z,10.70
2022-12-25T14:00:21.468Z,10.70
2022-12-25T14:02:49.743Z,10.70
2022-12-25T14:05:32.306Z,10.70
2022-12-25T14:08:22.147Z,10.70
2022-12-25T14:10:53.685Z,10.70
2022-12-25T14:13:25.005Z,10.70
2022-12-25T14:15:53.439Z,10.70
2022-12-25T14:18:22.625Z,10.70
2022-12-25T14:21:12.584Z,10.70
2022-12-25T14:23:50.663Z,10.70
2022-12-25T14:26:20.341Z,10.70
2022-12-25T14:29:15.777Z,10.70
2022-12-25T14:31:44.859Z,10.70
2022-12-25T14:34:24.477Z,10.70
2022-12-25T14:36:54.958Z,10.70
2022-12-25T14:39:37.983Z,10.70
2022-12-25T14:42:23.737Z,10.70
2022-12-25T14:45:00.225Z,10.80
2022-12-25T14:47:27.732Z,10.70
2022-12-25T14:49:55.896Z,10.80
2022-12-25T14:52:25.644Z,10.80
2022-12-25T14:55:01.476Z,10.80
2022-12-25T14:57:32.085Z,10.80
2022-12-25T15:00:05.268Z,10.80
2022-12-25T15:02:40.531Z,10.80
2022-12-25T15:05:28.114Z,10.90
2022-12-25T15:08:02.345Z,10.90
2022-12-25T15:10:59.004Z,10.90
2022-12-25T15:13:22.878Z,10.90
2022-12-25T15:16:00.760Z,10.90
2022-12-25T15:18:36.634Z,10.90
2022-12-25T15:21:03.742Z,10.90
2022-12-25T15:23:33.245Z,10.90
2022-12-25T15:26:02.789Z,10.90
2022-12-25T15:28:29.614Z,11.00
2022-12-25T15:30:56.703Z,11.00
2022-12-25T15:33:23.520Z,11.00
2022-12-25T15:35:50.303Z,11.00
2022-12-25T15:38:17.097Z,10.90
2022-12-25T15:40:44.070Z,10.90
2022-12-25T15:43:39.339Z,10.90
2022-12-25T15:46:01.645Z,10.90
2022-12-25T15:48:28.447Z,10.90
2022-12-25T15:50:55.114Z,10.90
2022-12-25T15:53:21.886Z,10.90
2022-12-25T15:55:49.198Z,10.90
2022-12-25T15:58:16.026Z,10.90
2022-12-25T16:00:42.789Z,10.90
2022-12-25T16:03:12.533Z,10.90
2022-12-25T16:05:39.841Z,10.90
2022-12-25T16:08:06.624Z,10.90
2022-12-25T16:10:38.490Z,10.90
2022-12-25T16:13:05.937Z,10.90
2022-12-25T16:15:33.496Z,10.90
2022-12-25T16:18:00.368Z,10.90
2022-12-25T16:20:27.239Z,10.90
2022-12-25T16:22:54.451Z,10.90
2022-12-25T16:25:27.283Z,10.90
2022-12-25T16:27:56.123Z,10.90
2022-12-25T16:30:22.902Z,10.90
2022-12-25T16:32:50.455Z,10.80
2022-12-25T16:35:17.873Z,10.80
2022-12-25T16:37:44.769Z,10.80
2022-12-25T16:40:14.418Z,10.80
2022-12-25T16:42:41.125Z,10.80
2022-12-25T16:45:08.384Z,10.80
2022-12-25T16:47:35.280Z,10.70
2022-12-25T16:50:03.880Z,10.70
2022-12-25T16:52:32.767Z,10.70
2022-12-25T16:54:59.589Z,10.60
2022-12-25T16:57:27.168Z,10.60
2022-12-25T16:59:54.119Z,10.60
2022-12-25T17:02:21.941Z,10.50
2022-12-25T17:04:49.006Z,10.50
2022-12-25T17:07:17.086Z,10.50
2022-12-25T17:09:46.577Z,10.50
2022-12-25T17:12:13.268Z,10.50
2022-12-25T17:14:41.205Z,10.40
2022-12-25T17:17:07.932Z,10.50
2022-12-25T17:19:35.239Z,10.50
2022-12-25T17:22:02.091Z,10.50
2022-12-25T17:24:29.000Z,10.50
2022-12-25T17:26:55.895Z,10.50
2022-12-25T17:29:30.125Z,10.50
2022-12-25T17:31:56.892Z,10.50
2022-12-25T17:34:23.638Z,10.50
2022-12-25T17:36:50.343Z,10.50
2022-12-25T17:39:17.216Z,10.50
2022-12-25T17:41:43.949Z,10.60
2022-12-25T17:44:10.917Z,10.60
2022-12-25T17:46:37.715Z,10.50
2022-12-25T17:49:07.171Z,10.50
2022-12-25T17:51:34.061Z,10.60
2022-12-25T17:54:03.345Z,10.60
2022-12-25T17:56:31.232Z,10.60
2022-12-25T17:59:00.420Z,10.60
2022-12-25T18:01:28.591Z,10.60
2022-12-25T18:03:55.636Z,10.60
2022-12-25T18:06:25.118Z,10.60
2022-12-25T18:08:54.370Z,10.60
2022-12-25T18:11:24.684Z,10.70
2022-12-25T18:13:53.518Z,10.60
2022-12-25T18:16:22.261Z,10.70
2022-12-25T18:18:52.159Z,10.70
2022-12-25T18:21:20.848Z,10.70
2022-12-25T18:23:47.807Z,10.60
2022-12-25T18:26:15.154Z,10.60
2022-12-25T18:28:42.696Z,10.60
2022-12-25T18:31:10.937Z,10.70
2022-12-25T18:33:40.311Z,10.60
2022-12-25T18:36:07.489Z,10.60
2022-12-25T18:38:34.317Z,10.70
2022-12-25T18:41:05.613Z,10.70
2022-12-25T18:43:52.988Z,10.60
2022-12-25T18:46:22.355Z,10.60
2022-12-25T18:48:49.421Z,10.70
2022-12-25T18:51:16.201Z,10.70
2022-12-25T18:53:43.079Z,10.60
2022-12-25T18:56:17.570Z,10.70
2022-12-25T18:58:45.989Z,10.70
2022-12-25T19:01:17.155Z,10.60
2022-12-25T19:03:44.630Z,10.70
2022-12-25T19:06:23.968Z,10.70
2022-12-25T19:08:51.196Z,10.70
2022-12-25T19:11:18.830Z,10.60
2022-12-25T19:13:46.466Z,10.60
2022-12-25T19:16:16.469Z,10.60
2022-12-25T19:18:43.640Z,10.60
2022-12-25T19:21:11.071Z,10.60
2022-12-25T19:23:38.316Z,10.60
2022-12-25T19:26:06.249Z,10.50
2022-12-25T19:28:33.140Z,10.40
2022-12-25T19:31:02.658Z,10.40
2022-12-25T19:33:31.605Z,10.40
2022-12-25T19:36:06.902Z,10.40
2022-12-25T19:38:33.787Z,10.40
2022-12-25T19:41:06.210Z,10.40
2022-12-25T19:43:35.699Z,10.40
2022-12-25T19:46:02.942Z,10.40
2022-12-25T19:48:33.985Z,10.40
2022-12-25T19:51:01.135Z,10.40
2022-12-25T19:53:34.989Z,10.40
2022-12-25T19:56:03.540Z,10.50
2022-12-25T19:58:30.264Z,10.40
2022-12-25T20:01:12.724Z,10.40
2022-12-25T20:03:45.808Z,10.50
2022-12-25T20:06:20.091Z,10.50
2022-12-25T20:08:48.797Z,10.50
2022-12-25T20:11:16.887Z,10.50
2022-12-25T20:13:44.189Z,10.60
2022-12-25T20:16:11.883Z,10.50
2022-12-25T20:18:41.849Z,10.50
2022-12-25T20:21:14.025Z,10.60
2022-12-25T20:23:42.247Z,10.50
2022-12-25T20:26:10.342Z,10.60
2022-12-25T20:28:41.702Z,10.60
2022-12-25T20:31:12.416Z,10.60
2022-12-25T20:33:39.368Z,10.60
2022-12-25T20:36:07.299Z,10.60
2022-12-25T20:38:35.193Z,10.60
2022-12-25T20:43:52.175Z,10.60
2022-12-25T20:46:19.079Z,10.60
2022-12-25T20:48:45.851Z,10.60
2022-12-25T20:51:18.404Z,10.60
2022-12-25T20:53:45.806Z,10.60
2022-12-25T20:56:14.816Z,10.60
2022-12-25T20:58:41.628Z,10.60
2022-12-25T21:01:13.601Z,10.60
2022-12-25T21:03:41.438Z,10.60
2022-12-25T21:06:09.042Z,10.60
2022-12-25T21:08:36.609Z,10.60
2022-12-25T21:11:04.403Z,10.60
2022-12-25T21:13:34.399Z,10.60
2022-12-25T21:16:03.943Z,10.60
2022-12-25T21:18:30.738Z,10.70
2022-12-25T21:20:59.120Z,10.60
2022-12-25T21:23:26.730Z,10.60
2022-12-25T21:25:56.698Z,10.60
2022-12-25T21:28:27.020Z,10.70
2022-12-25T21:30:56.611Z,10.60
2022-12-25T21:33:41.724Z,10.60
2022-12-25T21:36:10.256Z,10.70
2022-12-25T21:38:38.488Z,10.70
2022-12-25T21:41:08.125Z,10.60
2022-12-25T21:43:35.962Z,10.70
2022-12-25T21:46:10.553Z,10.70
2022-12-25T21:48:38.391Z,10.70
2022-12-25T21:51:32.413Z,10.60
2022-12-25T21:54:02.075Z,10.70
2022-12-25T21:56:38.362Z,10.60
2022-12-25T21:59:09.737Z,10.60
2022-12-25T22:01:38.944Z,10.60
2022-12-25T22:04:07.970Z,10.60
2022-12-25T22:06:53.897Z,10.60
2022-12-25T22:09:27.593Z,10.60
2022-12-25T22:12:13.978Z,10.70
2022-12-25T22:15:02.545Z,10.70
2022-12-25T22:17:50.630Z,10.60
2022-12-25T22:20:34.441Z,10.70
2022-12-25T22:23:01.909Z,10.60
2022-12-25T22:25:28.693Z,10.60
2022-12-25T22:27:55.731Z,10.60
2022-12-25T22:30:28.337Z,10.60
2022-12-25T22:32:58.030Z,10.70
2022-12-25T22:35:24.824Z,10.70
2022-12-25T22:37:51.733Z,10.70
2022-12-25T22:40:19.824Z,10.70
2022-12-25T22:42:46.816Z,10.60
2022-12-25T22:45:16.524Z,10.70
2022-12-25T22:47:45.850Z,10.70
2022-12-25T22:50:14.862Z,10.70
2022-12-25T22:52:42.180Z,10.70
2022-12-25T22:55:10.086Z,10.60
2022-12-25T22:57:36.918Z,10.70
2022-12-25T23:00:06.847Z,10.70
2022-12-25T23:02:35.272Z,10.60
2022-12-25T23:05:03.310Z,10.60
2022-12-25T23:07:30.388Z,10.70
2022-12-25T23:10:00.261Z,10.60
2022-12-25T23:12:45.597Z,10.60
2022-12-25T23:15:12.376Z,10.60
2022-12-25T23:17:57.612Z,10.60
2022-12-25T23:20:42.911Z,10.60
2022-12-25T23:23:34.148Z,10.60
2022-12-25T23:26:10.276Z,10.60
2022-12-25T23:29:00.512Z,10.60
2022-12-25T23:31:35.011Z,10.60
2022-12-25T23:34:02.508Z,10.60
2022-12-25T23:36:29.427Z,10.60
2022-12-25T23:39:04.865Z,10.60
2022-12-25T23:41:35.766Z,10.60
2022-12-25T23:44:02.531Z,10.60
2022-12-25T23:46:32.502Z,10.60
2022-12-25T23:48:59.777Z,10.60
2022-12-25T23:51:26.746Z,10.60
2022-12-25T23:53:53.520Z,10.60
2022-12-25T23:56:20.345Z,10.60
2022-12-25T23:58:51.654Z,10.60
